sensor_id;sensor_type;location;lat;lon;timestamp;temperature;humidity
3466;DHT22;1747;48.884;9.160;2022-11-15T00:30:51;10.50;99.90
3466;DHT22;1747;48.884;9.160;2022-11-15T00:33:18;10.50;99.90
3466;DHT22;1747;48.884;9.160;2022-11-15T00:35:45;10.50;99.90
3466;DHT22;1747;48.884;9.160;2022-11-15T00:38:12;10.50;99.90
3466;DHT22;1747;48.884;9.160;2022-11-15T00:40:38;10.50;99.90
3466;DHT22;1747;48.884;9.160;2022-11-15T00:43:05;10.50;99.90
3466;DHT22;1747;48.884;9.160;2022-11-15T00:45:32;10.50;99.90
3466;DHT22;1747;48.884;9.160;2022-11-15T00:48:00;10.50;99.90
3466;DHT22;1747;48.884;9.160;2022-11-15T00:50:27;10.50;99.90
3466;DHT22;1747;48.884;9.160;2022-11-15T00:52:54;10.50;99.90
3466;DHT22;1747;48.884;9.160;2022-11-15T00:55:20;10.50;99.90
3466;DHT22;1747;48.884;9.160;2022-11-15T00:57:47;10.50;99.90
3466;DHT22;1747;48.884;9.160;2022-11-15T01:00:14;10.50;99.90
3466;DHT22;1747;48.884;9.160;2022-11-15T01:02:41;10.40;99.90
3466;DHT22;1747;48.884;9.160;2022-11-15T01:05:09;10.40;99.90
3466;DHT22;1747;48.884;9.160;2022-11-15T01:07:36;10.40;99.90
3466;DHT22;1747;48.884;9.160;2022-11-15T01:10:03;10.30;99.90
3466;DHT22;1747;48.884;9.160;2022-11-15T01:12:31;10.30;99.90
3466;DHT22;1747;48.884;9.160;2022-11-15T01:14:58;10.20;99.90
3466;DHT22;1747;48.884;9.160;2022-11-15T01:17:25;10.10;99.90
3466;DHT22;1747;48.884;9.160;2022-11-15T01:19:52;10.10;99.90
3466;DHT22;1747;48.884;9.160;2022-11-15T01:22:20;10.00;99.90
3466;DHT22;1747;48.884;9.160;2022-11-15T01:24:47;10.00;99.90
3466;DHT22;1747;48.884;9.160;2022-11-15T01:27:13;10.00;99.90
3466;DHT22;1747;48.884;9.160;2022-11-15T01:29:40;9.90;99.90
3466;DHT22;1747;48.884;9.160;2022-11-15T01:32:07;9.90;99.90
3466;DHT22;1747;48.884;9.160;2022-11-15T01:34:34;9.90;99.90
3466;DHT22;1747;48.884;9.160;2022-11-15T01:37:01;9.80;99.90
3466;DHT22;1747;48.884;9.160;2022-11-15T01:39:29;9.80;99.90
3466;DHT22;1747;48.884;9.160;2022-11-15T01:41:56;9.80;99.90
3466;DHT22;1747;48.884;9.160;2022-11-15T01:44:39;9.70;99.90
3466;DHT22;1747;48.884;9.160;2022-11-15T01:47:09;9.70;99.90
3466;DHT22;1747;48.884;9.160;2022-11-15T01:49:40;9.70;99.90
3466;DHT22;1747;48.884;9.160;2022-11-15T01:52:10;9.70;99.90
3466;DHT22;1747;48.884;9.160;2022-11-15T01:54:38;9.60;99.90
3466;DHT22;1747;48.884;9.160;2022-11-15T01:57:08;9.60;99.90
3466;DHT22;1747;48.884;9.160;2022-11-15T01:59:36;9.60;99.90
3466;DHT22;1747;48.884;9.160;2022-11-15T02:02:04;9.70;99.90
3466;DHT22;1747;48.884;9.160;2022-11-15T02:04:32;9.70;99.90
3466;DHT22;1747;48.884;9.160;2022-11-15T02:07:02;9.70;99.90
3466;DHT22;1747;48.884;9.160;2022-11-15T02:09:29;9.80;99.90
3466;DHT22;1747;48.884;9.160;2022-11-15T02:11:59;9.80;99.90
3466;DHT22;1747;48.884;9.160;2022-11-15T02:14:28;9.80;99.90
3466;DHT22;1747;48.884;9.160;2022-11-15T02:16:59;9.80;99.90
3466;DHT22;1747;48.884;9.160;2022-11-15T02:19:47;9.80;99.90
3466;DHT22;1747;48.884;9.160;2022-11-15T02:22:27;9.80;99.90
3466;DHT22;1747;48.884;9.160;2022-11-15T02:25:11;9.80;99.90
3466;DHT22;1747;48.884;9.160;2022-11-15T02:28:10;9.90;99.90
3466;DHT22;1747;48.884;9.160;2022-11-15T02:30:45;9.90;99.90
3466;DHT22;1747;48.884;9.160;2022-11-15T02:33:23;9.90;99.90
3466;DHT22;1747;48.884;9.160;2022-11-15T02:35:58;9.90;99.90
3466;DHT22;1747;48.884;9.160;2022-11-15T02:38:31;10.00;99.90
3466;DHT22;1747;48.884;9.160;2022-11-15T02:41:02;10.00;99.90
3466;DHT22;1747;48.884;9.160;2022-11-15T02:43:43;10.00;99.90
3466;DHT22;1747;48.884;9.160;2022-11-15T02:46:28;10.00;99.90
3466;DHT22;1747;48.884;9.160;2022-11-15T02:49:11;10.10;99.90
3466;DHT22;1747;48.884;9.160;2022-11-15T02:51:40;10.10;99.90
3466;DHT22;1747;48.884;9.160;2022-11-15T02:54:09;10.00;99.90
3466;DHT22;1747;48.884;9.160;2022-11-15T02:56:37;10.00;99.90
3466;DHT22;1747;48.884;9.160;2022-11-15T02:59:19;10.00;99.90
3466;DHT22;1747;48.884;9.160;2022-11-15T03:02:00;9.90;99.90
3466;DHT22;1747;48.884;9.160;2022-11-15T03:04:35;10.00;99.90
3466;DHT22;1747;48.884;9.160;2022-11-15T03:07:08;10.00;99.90
3466;DHT22;1747;48.884;9.160;2022-11-15T03:09:42;10.10;99.90
3466;DHT22;1747;48.884;9.160;2022-11-15T03:12:15;10.10;99.90
3466;DHT22;1747;48.884;9.160;2022-11-15T03:14:48;10.10;99.90
3466;DHT22;1747;48.884;9.160;2022-11-15T03:17:25;10.10;99.90
3466;DHT22;1747;48.884;9.160;2022-11-15T03:19:55;10.20;99.90
3466;DHT22;1747;48.884;9.160;2022-11-15T03:22:25;10.10;99.90
3466;DHT22;1747;48.884;9.160;2022-11-15T03:24:55;10.20;99.90
3466;DHT22;1747;48.884;9.160;2022-11-15T03:27:26;10.10;99.90
3466;DHT22;1747;48.884;9.160;2022-11-15T03:29:59;10.10;99.90
3466;DHT22;1747;48.884;9.160;2022-11-15T03:32:29;10.00;99.90
3466;DHT22;1747;48.884;9.160;2022-11-15T03:34:58;9.90;99.90
3466;DHT22;1747;48.884;9.160;2022-11-15T03:37:30;9.90;99.90
3466;DHT22;1747;48.884;9.160;2022-11-15T03:39:59;9.80;99.90
3466;DHT22;1747;48.884;9.160;2022-11-15T03:42:31;9.70;99.90
3466;DHT22;1747;48.884;9.160;2022-11-15T03:45:02;9.60;99.90
3466;DHT22;1747;48.884;9.160;2022-11-15T03:47:38;9.50;99.90
3466;DHT22;1747;48.884;9.160;2022-11-15T03:50:09;9.50;99.90
3466;DHT22;1747;48.884;9.160;2022-11-15T03:52:37;9.40;99.90
3466;DHT22;1747;48.884;9.160;2022-11-15T03:55:09;9.40;99.90
3466;DHT22;1747;48.884;9.160;2022-11-15T03:57:36;9.40;99.90
3466;DHT22;1747;48.884;9.160;2022-11-15T04:00:04;9.50;99.90
3466;DHT22;1747;48.884;9.160;2022-11-15T04:02:31;9.50;99.90
3466;DHT22;1747;48.884;9.160;2022-11-15T04:04:59;9.50;99.90
3466;DHT22;1747;48.884;9.160;2022-11-15T04:07:26;9.50;99.90
3466;DHT22;1747;48.884;9.160;2022-11-15T04:09:53;9.50;99.90
3466;DHT22;1747;48.884;9.160;2022-11-15T04:12:29;9.50;99.90
3466;DHT22;1747;48.884;9.160;2022-11-15T04:14:59;9.50;99.90
3466;DHT22;1747;48.884;9.160;2022-11-15T04:17:38;9.50;99.90
3466;DHT22;1747;48.884;9.160;2022-11-15T04:20:09;9.50;99.90
3466;DHT22;1747;48.884;9.160;2022-11-15T04:22:54;9.40;99.90
3466;DHT22;1747;48.884;9.160;2022-11-15T04:25:39;9.40;99.90
3466;DHT22;1747;48.884;9.160;2022-11-15T04:28:06;9.40;99.90
3466;DHT22;1747;48.884;9.160;2022-11-15T04:30:33;9.50;99.90
3466;DHT22;1747;48.884;9.160;2022-11-15T04:32:59;9.50;99.90
3466;DHT22;1747;48.884;9.160;2022-11-15T04:35:28;9.50;99.90
3466;DHT22;1747;48.884;9.160;2022-11-15T04:37:55;9.50;99.90
3466;DHT22;1747;48.884;9.160;2022-11-15T04:40:21;9.50;99.90
3466;DHT22;1747;48.884;9.160;2022-11-15T04:42:48;9.60;99.90
3466;DHT22;1747;48.884;9.160;2022-11-15T04:45:15;9.70;99.90
3466;DHT22;1747;48.884;9.160;2022-11-15T04:47:44;9.70;99.90
3466;DHT22;1747;48.884;9.160;2022-11-15T04:50:11;9.70;99.90
3466;DHT22;1747;48.884;9.160;2022-11-15T04:52:43;9.70;99.90
3466;DHT22;1747;48.884;9.160;2022-11-15T04:55:11;9.70;99.90
3466;DHT22;1747;48.884;9.160;2022-11-15T04:57:38;9.70;99.90
3466;DHT22;1747;48.884;9.160;2022-11-15T05:00:07;9.70;99.90
3466;DHT22;1747;48.884;9.160;2022-11-15T05:02:34;9.60;99.90
3466;DHT22;1747;48.884;9.160;2022-11-15T05:05:19;9.60;99.90
3466;DHT22;1747;48.884;9.160;2022-11-15T05:07:48;9.60;99.90
3466;DHT22;1747;48.884;9.160;2022-11-15T05:10:14;9.60;99.90
3466;DHT22;1747;48.884;9.160;2022-11-15T05:12:41;9.50;99.90
3466;DHT22;1747;48.884;9.160;2022-11-15T05:15:09;9.50;99.90
3466;DHT22;1747;48.884;9.160;2022-11-15T05:17:36;9.50;99.90
3466;DHT22;1747;48.884;9.160;2022-11-15T05:20:03;9.50;99.90
3466;DHT22;1747;48.884;9.160;2022-11-15T05:22:30;9.50;99.90
3466;DHT22;1747;48.884;9.160;2022-11-15T05:24:58;9.50;99.90
3466;DHT22;1747;48.884;9.160;2022-11-15T05:27:25;9.40;99.90
3466;DHT22;1747;48.884;9.160;2022-11-15T05:29:51;9.40;99.90
3466;DHT22;1747;48.884;9.160;2022-11-15T05:32:18;9.40;99.90
3466;DHT22;1747;48.884;9.160;2022-11-15T05:34:45;9.40;99.90
3466;DHT22;1747;48.884;9.160;2022-11-15T05:37:13;9.30;99.90
3466;DHT22;1747;48.884;9.160;2022-11-15T05:39:39;9.30;99.90
3466;DHT22;1747;48.884;9.160;2022-11-15T05:42:10;9.30;99.90
3466;DHT22;1747;48.884;9.160;2022-11-15T05:44:40;9.30;99.90
3466;DHT22;1747;48.884;9.160;2022-11-15T05:47:10;9.30;99.90
3466;DHT22;1747;48.884;9.160;2022-11-15T05:49:40;9.30;99.90
3466;DHT22;1747;48.884;9.160;2022-11-15T05:52:11;9.20;99.90
3466;DHT22;1747;48.884;9.160;2022-11-15T05:54:39;9.30;99.90
3466;DHT22;1747;48.884;9.160;2022-11-15T05:57:08;9.30;99.90
3466;DHT22;1747;48.884;9.160;2022-11-15T05:59:35;9.20;99.90
3466;DHT22;1747;48.884;9.160;2022-11-15T06:02:02;9.20;99.90
3466;DHT22;1747;48.884;9.160;2022-11-15T06:04:29;9.20;99.90
3466;DHT22;1747;48.884;9.160;2022-11-15T06:06:58;9.10;99.90
3466;DHT22;1747;48.884;9.160;2022-11-15T06:09:24;9.10;99.90
3466;DHT22;1747;48.884;9.160;2022-11-15T06:11:51;9.10;99.90
3466;DHT22;1747;48.884;9.160;2022-11-15T06:14:20;9.10;99.90
3466;DHT22;1747;48.884;9.160;2022-11-15T06:16:46;9.10;99.90
3466;DHT22;1747;48.884;9.160;2022-11-15T06:19:13;9.10;99.90
3466;DHT22;1747;48.884;9.160;2022-11-15T06:21:41;9.20;99.90
3466;DHT22;1747;48.884;9.160;2022-11-15T06:24:07;9.20;99.90
3466;DHT22;1747;48.884;9.160;2022-11-15T06:26:34;9.20;99.90
3466;DHT22;1747;48.884;9.160;2022-11-15T06:29:02;9.20;99.90
3466;DHT22;1747;48.884;9.160;2022-11-15T06:31:31;9.30;99.90
3466;DHT22;1747;48.884;9.160;2022-11-15T06:33:57;9.30;99.90
3466;DHT22;1747;48.884;9.160;2022-11-15T06:36:24;9.30;99.90
3466;DHT22;1747;48.884;9.160;2022-11-15T06:38:51;9.30;99.90
3466;DHT22;1747;48.884;9.160;2022-11-15T06:41:18;9.30;99.90
3466;DHT22;1747;48.884;9.160;2022-11-15T06:43:46;9.30;99.90
3466;DHT22;1747;48.884;9.160;2022-11-15T06:46:13;9.30;99.90
3466;DHT22;1747;48.884;9.160;2022-11-15T06:48:41;9.30;99.90
3466;DHT22;1747;48.884;9.160;2022-11-15T06:51:08;9.30;99.90
3466;DHT22;1747;48.884;9.160;2022-11-15T06:53:35;9.30;99.90
3466;DHT22;1747;48.884;9.160;2022-11-15T06:56:02;9.40;99.90
3466;DHT22;1747;48.884;9.160;2022-11-15T06:58:30;9.40;99.90
3466;DHT22;1747;48.884;9.160;2022-11-15T07:01:01;9.50;99.90
3466;DHT22;1747;48.884;9.160;2022-11-15T07:03:28;9.50;99.90
3466;DHT22;1747;48.884;9.160;2022-11-15T07:05:57;9.60;99.90
3466;DHT22;1747;48.884;9.160;2022-11-15T07:08:26;9.70;99.90
3466;DHT22;1747;48.884;9.160;2022-11-15T07:10:54;9.70;99.90
3466;DHT22;1747;48.884;9.160;2022-11-15T07:13:24;9.70;99.90
3466;DHT22;1747;48.884;9.160;2022-11-15T07:15:51;9.70;99.90
3466;DHT22;1747;48.884;9.160;2022-11-15T07:18:17;9.70;99.90
3466;DHT22;1747;48.884;9.160;2022-11-15T07:20:44;9.80;99.90
3466;DHT22;1747;48.884;9.160;2022-11-15T07:23:13;9.80;99.90
3466;DHT22;1747;48.884;9.160;2022-11-15T07:25:39;9.80;99.90
3466;DHT22;1747;48.884;9.160;2022-11-15T07:28:06;9.90;99.90
3466;DHT22;1747;48.884;9.160;2022-11-15T07:30:33;10.00;99.90
3466;DHT22;1747;48.884;9.160;2022-11-15T07:33:00;10.00;99.90
3466;DHT22;1747;48.884;9.160;2022-11-15T07:35:28;10.10;99.90
3466;DHT22;1747;48.884;9.160;2022-11-15T07:37:56;10.20;99.90
3466;DHT22;1747;48.884;9.160;2022-11-15T07:40:25;10.30;99.90
3466;DHT22;1747;48.884;9.160;2022-11-15T07:42:51;10.30;99.90
3466;DHT22;1747;48.884;9.160;2022-11-15T07:45:23;10.50;99.90
3466;DHT22;1747;48.884;9.160;2022-11-15T07:47:51;10.50;99.90
3466;DHT22;1747;48.884;9.160;2022-11-15T07:50:18;10.60;99.90
3466;DHT22;1747;48.884;9.160;2022-11-15T07:52:45;10.70;99.90
3466;DHT22;1747;48.884;9.160;2022-11-15T07:55:12;10.80;99.90
3466;DHT22;1747;48.884;9.160;2022-11-15T07:57:41;10.80;99.90
3466;DHT22;1747;48.884;9.160;2022-11-15T08:00:09;10.90;99.90
3466;DHT22;1747;48.884;9.160;2022-11-15T08:02:36;10.90;99.90
3466;DHT22;1747;48.884;9.160;2022-11-15T08:05:03;11.00;99.90
3466;DHT22;1747;48.884;9.160;2022-11-15T08:07:30;11.10;99.90
3466;DHT22;1747;48.884;9.160;2022-11-15T08:09:57;11.20;99.90
3466;DHT22;1747;48.884;9.160;2022-11-15T08:12:24;11.30;99.90
3466;DHT22;1747;48.884;9.160;2022-11-15T08:14:52;11.40;99.90
3466;DHT22;1747;48.884;9.160;2022-11-15T08:17:19;11.40;99.90
3466;DHT22;1747;48.884;9.160;2022-11-15T08:19:46;11.50;99.90
3466;DHT22;1747;48.884;9.160;2022-11-15T08:22:13;11.50;99.90
3466;DHT22;1747;48.884;9.160;2022-11-15T08:24:40;11.50;99.90
3466;DHT22;1747;48.884;9.160;2022-11-15T08:27:07;11.60;99.90
3466;DHT22;1747;48.884;9.160;2022-11-15T08:29:41;11.60;99.90
3466;DHT22;1747;48.884;9.160;2022-11-15T08:32:09;11.70;99.90
3466;DHT22;1747;48.884;9.160;2022-11-15T08:34:36;11.80;99.90
3466;DHT22;1747;48.884;9.160;2022-11-15T08:37:03;11.90;99.90
3466;DHT22;1747;48.884;9.160;2022-11-15T08:39:30;12.00;99.90
3466;DHT22;1747;48.884;9.160;2022-11-15T08:41:57;12.10;99.90
3466;DHT22;1747;48.884;9.160;2022-11-15T08:44:24;12.20;99.90
3466;DHT22;1747;48.884;9.160;2022-11-15T08:46:51;12.30;99.90
3466;DHT22;1747;48.884;9.160;2022-11-15T08:49:19;12.40;99.90
3466;DHT22;1747;48.884;9.160;2022-11-15T08:51:46;12.50;99.90
3466;DHT22;1747;48.884;9.160;2022-11-15T08:54:12;12.70;99.90
3466;DHT22;1747;48.884;9.160;2022-11-15T08:56:39;12.80;99.90
3466;DHT22;1747;48.884;9.160;2022-11-15T08:59:06;13.00;99.90
3466;DHT22;1747;48.884;9.160;2022-11-15T09:01:33;13.10;99.90
3466;DHT22;1747;48.884;9.160;2022-11-15T09:04:00;13.20;99.90
3466;DHT22;1747;48.884;9.160;2022-11-15T09:06:28;13.30;99.90
3466;DHT22;1747;48.884;9.160;2022-11-15T09:08:55;13.50;99.90
3466;DHT22;1747;48.884;9.160;2022-11-15T09:11:22;13.70;99.90
3466;DHT22;1747;48.884;9.160;2022-11-15T09:13:49;13.60;99.90
3466;DHT22;1747;48.884;9.160;2022-11-15T09:16:15;13.50;99.90
3466;DHT22;1747;48.884;9.160;2022-11-15T09:18:43;13.50;99.90
3466;DHT22;1747;48.884;9.160;2022-11-15T09:21:10;13.60;99.90
3466;DHT22;1747;48.884;9.160;2022-11-15T09:23:38;13.60;99.90
3466;DHT22;1747;48.884;9.160;2022-11-15T09:26:05;13.70;99.90
3466;DHT22;1747;48.884;9.160;2022-11-15T09:28:32;13.70;99.90
3466;DHT22;1747;48.884;9.160;2022-11-15T09:31:01;13.60;99.90
3466;DHT22;1747;48.884;9.160;2022-11-15T09:33:28;13.70;99.90
3466;DHT22;1747;48.884;9.160;2022-11-15T09:36:00;13.70;99.90
3466;DHT22;1747;48.884;9.160;2022-11-15T09:38:27;13.80;99.90
3466;DHT22;1747;48.884;9.160;2022-11-15T09:41:22;13.80;99.90
3466;DHT22;1747;48.884;9.160;2022-11-15T09:44:07;13.90;99.90
3466;DHT22;1747;48.884;9.160;2022-11-15T09:46:44;14.10;99.90
3466;DHT22;1747;48.884;9.160;2022-11-15T09:49:17;14.30;99.90
3466;DHT22;1747;48.884;9.160;2022-11-15T09:51:47;14.30;99.90
3466;DHT22;1747;48.884;9.160;2022-11-15T09:54:23;14.40;99.90
3466;DHT22;1747;48.884;9.160;2022-11-15T09:56:56;14.50;99.90
3466;DHT22;1747;48.884;9.160;2022-11-15T09:59:44;14.50;99.90
3466;DHT22;1747;48.884;9.160;2022-11-15T10:02:24;14.70;99.90
3466;DHT22;1747;48.884;9.160;2022-11-15T10:04:54;14.60;99.90
3466;DHT22;1747;48.884;9.160;2022-11-15T10:07:25;14.70;99.90
3466;DHT22;1747;48.884;9.160;2022-11-15T10:09:54;14.70;99.90
3466;DHT22;1747;48.884;9.160;2022-11-15T10:12:24;14.70;99.90
3466;DHT22;1747;48.884;9.160;2022-11-15T10:15:02;14.80;99.90
3466;DHT22;1747;48.884;9.160;2022-11-15T10:17:55;14.70;99.90
3466;DHT22;1747;48.884;9.160;2022-11-15T10:20:27;14.70;99.90
3466;DHT22;1747;48.884;9.160;2022-11-15T10:22:56;14.70;99.90
3466;DHT22;1747;48.884;9.160;2022-11-15T10:25:27;14.80;99.90
3466;DHT22;1747;48.884;9.160;2022-11-15T10:27:57;14.70;99.90
3466;DHT22;1747;48.884;9.160;2022-11-15T10:30:31;14.70;99.90
3466;DHT22;1747;48.884;9.160;2022-11-15T10:33:20;14.70;99.90
3466;DHT22;1747;48.884;9.160;2022-11-15T10:36:18;14.70;99.90
3466;DHT22;1747;48.884;9.160;2022-11-15T10:38:54;14.70;99.90
3466;DHT22;1747;48.884;9.160;2022-11-15T10:41:23;14.70;99.90
3466;DHT22;1747;48.884;9.160;2022-11-15T10:44:11;14.70;99.90
3466;DHT22;1747;48.884;9.160;2022-11-15T10:46:40;14.70;99.90
3466;DHT22;1747;48.884;9.160;2022-11-15T10:49:13;14.70;99.90
3466;DHT22;1747;48.884;9.160;2022-11-15T10:51:45;14.70;99.90
3466;DHT22;1747;48.884;9.160;2022-11-15T10:54:15;14.70;99.90
3466;DHT22;1747;48.884;9.160;2022-11-15T10:56:48;14.70;99.90
3466;DHT22;1747;48.884;9.160;2022-11-15T10:59:21;14.70;99.90
3466;DHT22;1747;48.884;9.160;2022-11-15T11:01:50;14.70;99.90
3466;DHT22;1747;48.884;9.160;2022-11-15T11:04:17;14.60;99.90
3466;DHT22;1747;48.884;9.160;2022-11-15T11:06:50;14.60;99.90
3466;DHT22;1747;48.884;9.160;2022-11-15T11:09:25;14.60;99.90
3466;DHT22;1747;48.884;9.160;2022-11-15T11:11:53;14.60;99.90
3466;DHT22;1747;48.884;9.160;2022-11-15T11:14:22;14.60;99.90
3466;DHT22;1747;48.884;9.160;2022-11-15T11:16:54;14.50;99.90
3466;DHT22;1747;48.884;9.160;2022-11-15T11:19:39;14.50;99.90
3466;DHT22;1747;48.884;9.160;2022-11-15T11:22:16;14.50;99.90
3466;DHT22;1747;48.884;9.160;2022-11-15T11:24:48;14.50;99.90
3466;DHT22;1747;48.884;9.160;2022-11-15T11:27:30;14.50;99.90
3466;DHT22;1747;48.884;9.160;2022-11-15T11:30:06;14.50;99.90
3466;DHT22;1747;48.884;9.160;2022-11-15T11:32:49;14.50;99.90
3466;DHT22;1747;48.884;9.160;2022-11-15T11:35:20;14.60;99.90
3466;DHT22;1747;48.884;9.160;2022-11-15T11:37:52;14.60;99.90
3466;DHT22;1747;48.884;9.160;2022-11-15T11:40:30;14.60;99.90
3466;DHT22;1747;48.884;9.160;2022-11-15T11:43:04;14.70;99.90
3466;DHT22;1747;48.884;9.160;2022-11-15T11:45:48;14.80;99.90
3466;DHT22;1747;48.884;9.160;2022-11-15T11:48:38;14.90;99.90
3466;DHT22;1747;48.884;9.160;2022-11-15T11:51:13;15.00;99.90
3466;DHT22;1747;48.884;9.160;2022-11-15T11:53:47;15.10;99.90
3466;DHT22;1747;48.884;9.160;2022-11-15T11:56:22;15.20;99.90
3466;DHT22;1747;48.884;9.160;2022-11-15T11:58:50;15.30;99.90
3466;DHT22;1747;48.884;9.160;2022-11-15T12:01:23;15.30;99.90
3466;DHT22;1747;48.884;9.160;2022-11-15T12:03:54;15.40;99.90
3466;DHT22;1747;48.884;9.160;2022-11-15T12:06:30;15.30;99.90
3466;DHT22;1747;48.884;9.160;2022-11-15T12:09:03;15.30;99.90
3466;DHT22;1747;48.884;9.160;2022-11-15T12:11:37;15.30;99.90
3466;DHT22;1747;48.884;9.160;2022-11-15T12:14:12;15.40;99.90
3466;DHT22;1747;48.884;9.160;2022-11-15T12:16:43;15.50;99.90
3466;DHT22;1747;48.884;9.160;2022-11-15T12:19:09;15.70;99.90
3466;DHT22;1747;48.884;9.160;2022-11-15T12:21:43;15.80;99.90
3466;DHT22;1747;48.884;9.160;2022-11-15T12:24:16;15.70;99.90
3466;DHT22;1747;48.884;9.160;2022-11-15T12:26:49;15.70;99.90
3466;DHT22;1747;48.884;9.160;2022-11-15T12:29:20;15.70;99.90
3466;DHT22;1747;48.884;9.160;2022-11-15T12:31:50;15.40;99.90
3466;DHT22;1747;48.884;9.160;2022-11-15T12:34:37;15.40;99.90
3466;DHT22;1747;48.884;9.160;2022-11-15T12:37:32;15.30;99.90
3466;DHT22;1747;48.884;9.160;2022-11-15T12:40:38;15.30;99.90
3466;DHT22;1747;48.884;9.160;2022-11-15T12:46:20;15.10;99.90
3466;DHT22;1747;48.884;9.160;2022-11-15T12:48:52;15.10;99.90
3466;DHT22;1747;48.884;9.160;2022-11-15T12:51:21;15.00;99.90
3466;DHT22;1747;48.884;9.160;2022-11-15T12:53:48;15.00;99.90
3466;DHT22;1747;48.884;9.160;2022-11-15T12:56:21;15.00;99.90
3466;DHT22;1747;48.884;9.160;2022-11-15T12:58:51;15.00;99.90
3466;DHT22;1747;48.884;9.160;2022-11-15T13:01:53;15.00;99.90
3466;DHT22;1747;48.884;9.160;2022-11-15T13:04:25;15.00;99.90
3466;DHT22;1747;48.884;9.160;2022-11-15T13:06:54;14.90;99.90
3466;DHT22;1747;48.884;9.160;2022-11-15T13:09:51;14.90;99.90
3466;DHT22;1747;48.884;9.160;2022-11-15T13:12:49;14.90;99.90
3466;DHT22;1747;48.884;9.160;2022-11-15T13:15:34;14.90;99.90
3466;DHT22;1747;48.884;9.160;2022-11-15T13:18:31;15.00;99.90
3466;DHT22;1747;48.884;9.160;2022-11-15T13:20:58;14.90;99.90
3466;DHT22;1747;48.884;9.160;2022-11-15T13:23:25;14.90;99.90
3466;DHT22;1747;48.884;9.160;2022-11-15T13:26:16;14.80;99.90
3466;DHT22;1747;48.884;9.160;2022-11-15T13:28:46;14.80;99.90
3466;DHT22;1747;48.884;9.160;2022-11-15T13:34:01;14.80;99.90
3466;DHT22;1747;48.884;9.160;2022-11-15T13:36:30;14.80;99.90
3466;DHT22;1747;48.884;9.160;2022-11-15T13:39:00;14.80;99.90
3466;DHT22;1747;48.884;9.160;2022-11-15T13:41:29;14.80;99.90
3466;DHT22;1747;48.884;9.160;2022-11-15T13:43:58;14.80;99.90
3466;DHT22;1747;48.884;9.160;2022-11-15T13:46:26;14.80;99.90
3466;DHT22;1747;48.884;9.160;2022-11-15T13:48:57;14.70;99.90
3466;DHT22;1747;48.884;9.160;2022-11-15T13:51:29;14.70;99.90
3466;DHT22;1747;48.884;9.160;2022-11-15T13:53:58;14.70;99.90
3466;DHT22;1747;48.884;9.160;2022-11-15T13:56:27;14.60;99.90
3466;DHT22;1747;48.884;9.160;2022-11-15T13:58:55;14.60;99.90
3466;DHT22;1747;48.884;9.160;2022-11-15T14:01:25;14.60;99.90
3466;DHT22;1747;48.884;9.160;2022-11-15T14:03:57;14.60;99.90
3466;DHT22;1747;48.884;9.160;2022-11-15T14:06:25;14.50;99.90
3466;DHT22;1747;48.884;9.160;2022-11-15T14:09:30;14.50;99.90
3466;DHT22;1747;48.884;9.160;2022-11-15T14:11:58;14.50;99.90
3466;DHT22;1747;48.884;9.160;2022-11-15T14:14:27;14.50;99.90
3466;DHT22;1747;48.884;9.160;2022-11-15T14:16:56;14.50;99.90
3466;DHT22;1747;48.884;9.160;2022-11-15T14:19:39;14.40;99.90
3466;DHT22;1747;48.884;9.160;2022-11-15T14:22:11;14.30;99.90
3466;DHT22;1747;48.884;9.160;2022-11-15T14:24:39;14.30;99.90
3466;DHT22;1747;48.884;9.160;2022-11-15T14:27:24;14.20;99.90
3466;DHT22;1747;48.884;9.160;2022-11-15T14:29:51;14.10;99.90
3466;DHT22;1747;48.884;9.160;2022-11-15T14:32:21;14.00;99.90
3466;DHT22;1747;48.884;9.160;2022-11-15T14:34:49;14.00;99.90
3466;DHT22;1747;48.884;9.160;2022-11-15T14:37:22;14.00;99.90
3466;DHT22;1747;48.884;9.160;2022-11-15T14:39:49;13.90;99.90
3466;DHT22;1747;48.884;9.160;2022-11-15T14:42:17;13.90;99.90
3466;DHT22;1747;48.884;9.160;2022-11-15T14:44:44;13.90;99.90
3466;DHT22;1747;48.884;9.160;2022-11-15T14:47:11;13.80;99.90
3466;DHT22;1747;48.884;9.160;2022-11-15T14:49:40;13.80;99.90
3466;DHT22;1747;48.884;9.160;2022-11-15T14:52:25;13.70;99.90
3466;DHT22;1747;48.884;9.160;2022-11-15T14:54:53;13.60;99.90
3466;DHT22;1747;48.884;9.160;2022-11-15T14:57:20;13.70;99.90
3466;DHT22;1747;48.884;9.160;2022-11-15T14:59:47;13.60;99.90
3466;DHT22;1747;48.884;9.160;2022-11-15T15:02:18;13.60;99.90
3466;DHT22;1747;48.884;9.160;2022-11-15T15:04:47;13.70;99.90
3466;DHT22;1747;48.884;9.160;2022-11-15T15:07:14;13.70;99.90
3466;DHT22;1747;48.884;9.160;2022-11-15T15:09:41;13.70;99.90
3466;DHT22;1747;48.884;9.160;2022-11-15T15:12:15;13.70;99.90
3466;DHT22;1747;48.884;9.160;2022-11-15T15:14:43;13.70;99.90
3466;DHT22;1747;48.884;9.160;2022-11-15T15:17:10;13.70;99.90
3466;DHT22;1747;48.884;9.160;2022-11-15T15:19:37;13.60;99.90
3466;DHT22;1747;48.884;9.160;2022-11-15T15:22:05;13.60;99.90
3466;DHT22;1747;48.884;9.160;2022-11-15T15:24:32;13.60;99.90
3466;DHT22;1747;48.884;9.160;2022-11-15T15:26:59;13.50;99.90
3466;DHT22;1747;48.884;9.160;2022-11-15T15:29:26;13.50;99.90
3466;DHT22;1747;48.884;9.160;2022-11-15T15:31:53;13.40;99.90
3466;DHT22;1747;48.884;9.160;2022-11-15T15:34:21;13.30;99.90
3466;DHT22;1747;48.884;9.160;2022-11-15T15:36:48;13.20;99.90
3466;DHT22;1747;48.884;9.160;2022-11-15T15:39:16;13.20;99.90
3466;DHT22;1747;48.884;9.160;2022-11-15T15:41:43;13.20;99.90
3466;DHT22;1747;48.884;9.160;2022-11-15T15:44:10;13.20;99.90
3466;DHT22;1747;48.884;9.160;2022-11-15T15:46:36;13.20;99.90
3466;DHT22;1747;48.884;9.160;2022-11-15T15:49:03;13.20;99.90
3466;DHT22;1747;48.884;9.160;2022-11-15T15:51:30;13.20;99.90
3466;DHT22;1747;48.884;9.160;2022-11-15T15:53:57;13.10;99.90
3466;DHT22;1747;48.884;9.160;2022-11-15T15:56:25;13.10;99.90
3466;DHT22;1747;48.884;9.160;2022-11-15T15:58:53;13.10;99.90
3466;DHT22;1747;48.884;9.160;2022-11-15T16:01:20;13.00;99.90
3466;DHT22;1747;48.884;9.160;2022-11-15T16:03:47;13.00;99.90
3466;DHT22;1747;48.884;9.160;2022-11-15T16:06:33;13.00;99.90
3466;DHT22;1747;48.884;9.160;2022-11-15T16:09:00;13.00;99.90
3466;DHT22;1747;48.884;9.160;2022-11-15T16:11:29;13.00;99.90
3466;DHT22;1747;48.884;9.160;2022-11-15T16:13:55;13.00;99.90
3466;DHT22;1747;48.884;9.160;2022-11-15T16:16:22;13.00;99.90
3466;DHT22;1747;48.884;9.160;2022-11-15T16:18:49;13.00;99.90
3466;DHT22;1747;48.884;9.160;2022-11-15T16:21:16;13.00;99.90
3466;DHT22;1747;48.884;9.160;2022-11-15T16:23:42;13.00;99.90
3466;DHT22;1747;48.884;9.160;2022-11-15T16:26:17;13.00;99.90
3466;DHT22;1747;48.884;9.160;2022-11-15T16:28:45;13.00;99.90
3466;DHT22;1747;48.884;9.160;2022-11-15T16:31:12;12.90;99.90
3466;DHT22;1747;48.884;9.160;2022-11-15T16:33:39;13.00;99.90
3466;DHT22;1747;48.884;9.160;2022-11-15T16:36:20;13.00;99.90
3466;DHT22;1747;48.884;9.160;2022-11-15T16:38:47;13.00;99.90
3466;DHT22;1747;48.884;9.160;2022-11-15T16:41:14;13.00;99.90
3466;DHT22;1747;48.884;9.160;2022-11-15T16:43:45;12.90;99.90
3466;DHT22;1747;48.884;9.160;2022-11-15T16:46:15;12.90;99.90
3466;DHT22;1747;48.884;9.160;2022-11-15T16:48:44;13.00;99.90
3466;DHT22;1747;48.884;9.160;2022-11-15T16:51:23;12.90;99.90
3466;DHT22;1747;48.884;9.160;2022-11-15T16:53:54;12.90;99.90
3466;DHT22;1747;48.884;9.160;2022-11-15T16:56:29;12.90;99.90
3466;DHT22;1747;48.884;9.160;2022-11-15T16:58:58;12.90;99.90
3466;DHT22;1747;48.884;9.160;2022-11-15T17:01:28;12.90;99.90
3466;DHT22;1747;48.884;9.160;2022-11-15T17:03:56;12.90;99.90
3466;DHT22;1747;48.884;9.160;2022-11-15T17:06:24;12.90;99.90